sensor_id;sensor_type;location;lat;lon;timestamp;pressure;altitude;pressure_sealevel;temperature;humidity
67015;BME280;1033;52.560;13.374;2023-01-13T00:00:22;99910.91;;;9.72;100.00
67015;BME280;1033;52.560;13.374;2023-01-13T00:02:57;99912.16;;;9.69;100.00
67015;BME280;1033;52.560;13.374;2023-01-13T00:05:29;99913.63;;;9.72;100.00
67015;BME280;1033;52.560;13.374;2023-01-13T00:08:00;99912.78;;;9.71;100.00
67015;BME280;1033;52.560;13.374;2023-01-13T00:10:32;99921.94;;;9.70;100.00
67015;BME280;1033;52.560;13.374;2023-01-13T00:13:03;99906.50;;;9.77;100.00
67015;BME280;1033;52.560;13.374;2023-01-13T00:15:38;99924.34;;;9.78;100.00
67015;BME280;1033;52.560;13.374;2023-01-13T00:18:09;99917.41;;;9.89;100.00
67015;BME280;1033;52.560;13.374;2023-01-13T00:20:40;99918.53;;;9.81;100.00
67015;BME280;1033;52.560;13.374;2023-01-13T00:23:11;99914.31;;;9.85;100.00
67015;BME280;1033;52.560;13.374;2023-01-13T00:25:43;99915.16;;;9.86;100.00
67015;BME280;1033;52.560;13.374;2023-01-13T00:28:13;99915.97;;;9.86;100.00
67015;BME280;1033;52.560;13.374;2023-01-13T00:30:47;99906.22;;;9.85;100.00
67015;BME280;1033;52.560;13.374;2023-01-13T00:33:17;99912.50;;;9.79;100.00
67015;BME280;1033;52.560;13.374;2023-01-13T00:35:55;99912.25;;;9.87;100.00
67015;BME280;1033;52.560;13.374;2023-01-13T00:38:29;99914.16;;;9.80;100.00
67015;BME280;1033;52.560;13.374;2023-01-13T00:41:01;99906.84;;;9.87;100.00
67015;BME280;1033;52.560;13.374;2023-01-13T00:43:33;99913.81;;;9.95;100.00
67015;BME280;1033;52.560;13.374;2023-01-13T00:46:05;99908.31;;;9.83;100.00
67015;BME280;1033;52.560;13.374;2023-01-13T00:48:37;99904.22;;;9.74;100.00
67015;BME280;1033;52.560;13.374;2023-01-13T00:51:12;99904.22;;;9.74;100.00
67015;BME280;1033;52.560;13.374;2023-01-13T00:53:44;99907.72;;;9.81;100.00
67015;BME280;1033;52.560;13.374;2023-01-13T00:56:16;99907.09;;;9.79;100.00
67015;BME280;1033;52.560;13.374;2023-01-13T00:59:06;99906.72;;;9.76;100.00
67015;BME280;1033;52.560;13.374;2023-01-13T01:01:38;99903.56;;;9.79;100.00
67015;BME280;1033;52.560;13.374;2023-01-13T01:04:09;99905.00;;;9.81;100.00
67015;BME280;1033;52.560;13.374;2023-01-13T01:06:40;99908.47;;;9.88;100.00
67015;BME280;1033;52.560;13.374;2023-01-13T01:09:13;99906.06;;;9.80;100.00
67015;BME280;1033;52.560;13.374;2023-01-13T01:11:44;99916.06;;;9.73;100.00
67015;BME280;1033;52.560;13.374;2023-01-13T01:14:15;99912.78;;;9.71;100.00
67015;BME280;1033;52.560;13.374;2023-01-13T01:16:48;99911.00;;;9.83;99.71
67015;BME280;1033;52.560;13.374;2023-01-13T01:19:19;99912.06;;;9.82;99.63
67015;BME280;1033;52.560;13.374;2023-01-13T01:21:49;99910.13;;;9.89;99.13
67015;BME280;1033;52.560;13.374;2023-01-13T01:24:20;99911.00;;;9.83;99.08
67015;BME280;1033;52.560;13.374;2023-01-13T01:26:51;99907.72;;;9.81;99.30
67015;BME280;1033;52.560;13.374;2023-01-13T01:29:21;99918.28;;;9.83;99.02
67015;BME280;1033;52.560;13.374;2023-01-13T01:31:54;99908.09;;;9.85;98.98
67015;BME280;1033;52.560;13.374;2023-01-13T01:34:26;99904.38;;;9.79;98.96
67015;BME280;1033;52.560;13.374;2023-01-13T01:36:56;99909.53;;;9.87;98.43
67015;BME280;1033;52.560;13.374;2023-01-13T01:39:27;99910.06;;;9.96;97.94
67015;BME280;1033;52.560;13.374;2023-01-13T01:41:58;99905.19;;;9.86;98.13
67015;BME280;1033;52.560;13.374;2023-01-13T01:45:12;99902.56;;;9.98;97.28
67015;BME280;1033;52.560;13.374;2023-01-13T01:47:48;99904.00;;;10.00;96.75
67015;BME280;1033;52.560;13.374;2023-01-13T01:50:20;99902.19;;;9.94;96.61
67015;BME280;1033;52.560;13.374;2023-01-13T01:52:55;99902.97;;;10.01;96.27
67015;BME280;1033;52.560;13.374;2023-01-13T01:55:29;99902.72;;;10.03;96.23
67015;BME280;1033;52.560;13.374;2023-01-13T01:58:04;99892.81;;;9.97;96.65
67015;BME280;1033;52.560;13.374;2023-01-13T02:00:36;99895.94;;;9.94;96.13
67015;BME280;1033;52.560;13.374;2023-01-13T02:03:09;99891.06;;;10.02;96.19
67015;BME280;1033;52.560;13.374;2023-01-13T02:05:40;99896.47;;;10.02;95.16
67015;BME280;1033;52.560;13.374;2023-01-13T02:08:13;99887.13;;;10.05;94.99
67015;BME280;1033;52.560;13.374;2023-01-13T02:10:48;99890.88;;;10.04;95.00
67015;BME280;1033;52.560;13.374;2023-01-13T02:13:22;99900.09;;;9.96;95.38
67015;BME280;1033;52.560;13.374;2023-01-13T02:15:56;99885.97;;;9.94;95.26
67015;BME280;1033;52.560;13.374;2023-01-13T02:18:40;99885.97;;;9.94;95.35
67015;BME280;1033;52.560;13.374;2023-01-13T02:24:26;99879.53;;;9.95;94.84
67015;BME280;1033;52.560;13.374;2023-01-13T02:27:44;99882.00;;;9.97;94.52
67015;BME280;1033;52.560;13.374;2023-01-13T02:30:32;99882.66;;;9.92;94.85
67015;BME280;1033;52.560;13.374;2023-01-13T02:36:23;99875.16;;;9.94;94.52
67015;BME280;1033;52.560;13.374;2023-01-13T02:39:02;99880.41;;;9.89;94.91
67015;BME280;1033;52.560;13.374;2023-01-13T02:41:39;99872.75;;;9.86;95.01
67015;BME280;1033;52.560;13.374;2023-01-13T02:44:32;99875.09;;;10.01;94.54
67015;BME280;1033;52.560;13.374;2023-01-13T02:47:09;99869.97;;;9.93;94.26
67015;BME280;1033;52.560;13.374;2023-01-13T02:49:45;99864.81;;;9.91;94.27
67015;BME280;1033;52.560;13.374;2023-01-13T02:52:23;99871.84;;;9.92;94.42
67015;BME280;1033;52.560;13.374;2023-01-13T02:55:00;99874.84;;;10.02;93.22
67015;BME280;1033;52.560;13.374;2023-01-13T02:57:37;99865.22;;;9.88;94.09
67015;BME280;1033;52.560;13.374;2023-01-13T03:00:11;99864.19;;;9.89;94.05
67015;BME280;1033;52.560;13.374;2023-01-13T03:02:44;99863.72;;;9.92;93.89
67015;BME280;1033;52.560;13.374;2023-01-13T03:05:15;99864.84;;;9.85;94.26
67015;BME280;1033;52.560;13.374;2023-01-13T03:07:59;99861.13;;;9.86;93.50
67015;BME280;1033;52.560;13.374;2023-01-13T03:10:50;99865.22;;;9.88;93.49
67015;BME280;1033;52.560;13.374;2023-01-13T03:13:41;99843.63;;;9.88;93.37
67015;BME280;1033;52.560;13.374;2023-01-13T03:16:22;99841.53;;;9.90;93.27
67015;BME280;1033;52.560;13.374;2023-01-13T03:19:13;99838.53;;;9.98;93.02
67015;BME280;1033;52.560;13.374;2023-01-13T03:21:50;99837.94;;;9.96;92.44
67015;BME280;1033;52.560;13.374;2023-01-13T03:24:29;99850.16;;;9.99;92.11
67015;BME280;1033;52.560;13.374;2023-01-13T03:27:06;99849.78;;;9.95;92.30
67015;BME280;1033;52.560;13.374;2023-01-13T03:29:45;99851.28;;;9.91;92.49
67015;BME280;1033;52.560;13.374;2023-01-13T03:32:21;99851.00;;;9.99;91.47
67015;BME280;1033;52.560;13.374;2023-01-13T03:34:57;99848.97;;;9.95;91.78
67015;BME280;1033;52.560;13.374;2023-01-13T03:37:33;99837.84;;;9.85;91.97
67015;BME280;1033;52.560;13.374;2023-01-13T03:40:10;99845.66;;;9.93;91.94
67015;BME280;1033;52.560;13.374;2023-01-13T03:42:45;99852.38;;;9.84;91.88
67015;BME280;1033;52.560;13.374;2023-01-13T03:45:32;99849.47;;;9.85;92.25
67015;BME280;1033;52.560;13.374;2023-01-13T03:48:09;99841.03;;;9.75;92.62
67015;BME280;1033;52.560;13.374;2023-01-13T03:50:47;99843.63;;;9.88;92.42
67015;BME280;1033;52.560;13.374;2023-01-13T03:53:24;99843.41;;;9.90;91.57
67015;BME280;1033;52.560;13.374;2023-01-13T03:56:00;99853.84;;;9.86;92.22
67015;BME280;1033;52.560;13.374;2023-01-13T03:58:36;99842.41;;;9.84;92.22
67015;BME280;1033;52.560;13.374;2023-01-13T04:01:15;99843.44;;;9.83;92.00
67015;BME280;1033;52.560;13.374;2023-01-13T04:03:50;99837.69;;;9.80;92.49
67015;BME280;1033;52.560;13.374;2023-01-13T04:06:30;99848.03;;;9.83;92.06
67015;BME280;1033;52.560;13.374;2023-01-13T04:09:10;99844.69;;;9.87;91.60
67015;BME280;1033;52.560;13.374;2023-01-13T04:11:48;99828.06;;;9.84;91.78
67015;BME280;1033;52.560;13.374;2023-01-13T04:14:24;99831.19;;;9.87;91.40
67015;BME280;1033;52.560;13.374;2023-01-13T04:16:58;99835.34;;;9.83;92.07
67015;BME280;1033;52.560;13.374;2023-01-13T04:19:29;99838.34;;;9.75;92.16
67015;BME280;1033;52.560;13.374;2023-01-13T04:22:02;99838.19;;;9.70;92.13
67015;BME280;1033;52.560;13.374;2023-01-13T04:24:32;99832.81;;;9.64;92.54
67015;BME280;1033;52.560;13.374;2023-01-13T04:27:04;99834.41;;;9.53;93.29
67015;BME280;1033;52.560;13.374;2023-01-13T04:29:34;99842.50;;;9.53;93.60
67015;BME280;1033;52.560;13.374;2023-01-13T04:32:04;99846.09;;;9.47;93.91
67015;BME280;1033;52.560;13.374;2023-01-13T04:34:35;99842.34;;;9.48;93.68
67015;BME280;1033;52.560;13.374;2023-01-13T04:37:07;99847.41;;;9.38;94.58
67015;BME280;1033;52.560;13.374;2023-01-13T04:39:38;99843.91;;;9.31;95.12
67015;BME280;1033;52.560;13.374;2023-01-13T04:42:08;99833.91;;;9.38;94.51
67015;BME280;1033;52.560;13.374;2023-01-13T04:44:39;99838.03;;;9.40;94.30
67015;BME280;1033;52.560;13.374;2023-01-13T04:47:10;99843.31;;;9.29;94.93
67015;BME280;1033;52.560;13.374;2023-01-13T04:49:40;99844.94;;;9.30;95.16
67015;BME280;1033;52.560;13.374;2023-01-13T04:52:13;99844.38;;;9.28;95.22
67015;BME280;1033;52.560;13.374;2023-01-13T04:54:44;99850.84;;;9.20;95.82
67015;BME280;1033;52.560;13.374;2023-01-13T04:57:14;99848.78;;;9.15;96.18
67015;BME280;1033;52.560;13.374;2023-01-13T04:59:47;99844.41;;;9.21;96.32
67015;BME280;1033;52.560;13.374;2023-01-13T05:02:21;99846.63;;;9.31;95.85
67015;BME280;1033;52.560;13.374;2023-01-13T05:04:51;99852.34;;;9.41;94.80
67015;BME280;1033;52.560;13.374;2023-01-13T05:07:23;99858.72;;;9.53;94.28
67015;BME280;1033;52.560;13.374;2023-01-13T05:09:55;99870.56;;;9.52;94.06
67015;BME280;1033;52.560;13.374;2023-01-13T05:12:25;99870.97;;;9.49;94.32
67015;BME280;1033;52.560;13.374;2023-01-13T05:15:15;99872.38;;;9.58;94.17
67015;BME280;1033;52.560;13.374;2023-01-13T05:18:05;99877.50;;;9.66;93.39
67015;BME280;1033;52.560;13.374;2023-01-13T05:20:36;99874.75;;;9.73;93.14
67015;BME280;1033;52.560;13.374;2023-01-13T05:23:09;99896.41;;;9.91;92.17
67015;BME280;1033;52.560;13.374;2023-01-13T05:25:56;99896.31;;;9.97;91.90
67015;BME280;1033;52.560;13.374;2023-01-13T05:28:31;99890.13;;;9.97;93.44
67015;BME280;1033;52.560;13.374;2023-01-13T05:31:02;99895.53;;;9.97;94.34
67015;BME280;1033;52.560;13.374;2023-01-13T05:33:32;99896.56;;;9.96;95.25
67015;BME280;1033;52.560;13.374;2023-01-13T05:36:03;99906.38;;;9.90;95.12
67015;BME280;1033;52.560;13.374;2023-01-13T05:38:35;99909.53;;;9.87;95.82
67015;BME280;1033;52.560;13.374;2023-01-13T05:41:08;99910.56;;;9.86;96.39
67015;BME280;1033;52.560;13.374;2023-01-13T05:43:55;99910.63;;;9.80;97.89
67015;BME280;1033;52.560;13.374;2023-01-13T05:46:25;99914.38;;;9.79;99.68
67015;BME280;1033;52.560;13.374;2023-01-13T05:48:55;99913.63;;;9.72;100.00
67015;BME280;1033;52.560;13.374;2023-01-13T05:51:27;99912.00;;;9.64;100.00
67015;BME280;1033;52.560;13.374;2023-01-13T05:53:58;99919.09;;;9.58;100.00
67015;BME280;1033;52.560;13.374;2023-01-13T05:56:28;99919.00;;;9.47;100.00
67015;BME280;1033;52.560;13.374;2023-01-13T05:58:58;99937.78;;;9.60;100.00
67015;BME280;1033;52.560;13.374;2023-01-13T06:01:28;99929.00;;;9.40;100.00
67015;BME280;1033;52.560;13.374;2023-01-13T06:03:59;99941.34;;;9.54;100.00
67015;BME280;1033;52.560;13.374;2023-01-13T06:06:29;99933.53;;;9.46;100.00
67015;BME280;1033;52.560;13.374;2023-01-13T06:09:00;99919.69;;;9.36;100.00
67015;BME280;1033;52.560;13.374;2023-01-13T06:11:31;99924.97;;;9.49;100.00
67015;BME280;1033;52.560;13.374;2023-01-13T06:14:05;99909.56;;;9.25;100.00
67015;BME280;1033;52.560;13.374;2023-01-13T06:16:35;99913.25;;;9.37;100.00
67015;BME280;1033;52.560;13.374;2023-01-13T06:19:05;99917.66;;;9.25;100.00
67015;BME280;1033;52.560;13.374;2023-01-13T06:21:39;99922.09;;;9.19;100.00
67015;BME280;1033;52.560;13.374;2023-01-13T06:24:11;99913.81;;;9.14;100.00
67015;BME280;1033;52.560;13.374;2023-01-13T06:26:41;99919.81;;;9.16;100.00
67015;BME280;1033;52.560;13.374;2023-01-13T06:29:15;99917.53;;;9.13;100.00
67015;BME280;1033;52.560;13.374;2023-01-13T06:31:45;99917.00;;;8.98;100.00
67015;BME280;1033;52.560;13.374;2023-01-13T06:34:16;99911.25;;;8.81;100.00
67015;BME280;1033;52.560;13.374;2023-01-13T06:36:50;99911.44;;;8.86;100.00
67015;BME280;1033;52.560;13.374;2023-01-13T06:39:23;99917.72;;;8.80;100.00
67015;BME280;1033;52.560;13.374;2023-01-13T06:41:58;99919.06;;;8.96;100.00
67015;BME280;1033;52.560;13.374;2023-01-13T06:44:45;99910.59;;;8.92;100.00
67015;BME280;1033;52.560;13.374;2023-01-13T06:47:15;99907.06;;;8.92;100.00
67015;BME280;1033;52.560;13.374;2023-01-13T06:49:45;99903.31;;;8.99;100.00
67015;BME280;1033;52.560;13.374;2023-01-13T06:52:16;99890.81;;;9.05;100.00
67015;BME280;1033;52.560;13.374;2023-01-13T06:54:47;99866.09;;;9.08;100.00
67015;BME280;1033;52.560;13.374;2023-01-13T06:57:17;99873.53;;;9.12;100.00
67015;BME280;1033;52.560;13.374;2023-01-13T06:59:47;99886.53;;;9.22;100.00
67015;BME280;1033;52.560;13.374;2023-01-13T07:02:20;99893.31;;;9.38;100.00
67015;BME280;1033;52.560;13.374;2023-01-13T07:04:50;99890.22;;;9.34;100.00
67015;BME280;1033;52.560;13.374;2023-01-13T07:07:27;99903.66;;;9.41;100.00
67015;BME280;1033;52.560;13.374;2023-01-13T07:09:58;99900.84;;;9.54;100.00
67015;BME280;1033;52.560;13.374;2023-01-13T07:12:29;99915.44;;;9.53;100.00
67015;BME280;1033;52.560;13.374;2023-01-13T07:15:19;99908.47;;;9.39;100.00
67015;BME280;1033;52.560;13.374;2023-01-13T07:17:47;99894.50;;;9.42;100.00
67015;BME280;1033;52.560;13.374;2023-01-13T07:20:50;99883.44;;;9.50;100.00
67015;BME280;1033;52.560;13.374;2023-01-13T07:23:20;99883.56;;;9.62;100.00
67015;BME280;1033;52.560;13.374;2023-01-13T07:25:53;99873.84;;;9.54;100.00
67015;BME280;1033;52.560;13.374;2023-01-13T07:28:23;99854.78;;;9.49;100.00
67015;BME280;1033;52.560;13.374;2023-01-13T07:30:54;99870.56;;;9.52;100.00
67015;BME280;1033;52.560;13.374;2023-01-13T07:33:25;99909.78;;;9.79;99.85
67015;BME280;1033;52.560;13.374;2023-01-13T07:35:57;99892.88;;;9.66;98.39
67015;BME280;1033;52.560;13.374;2023-01-13T07:38:27;99883.72;;;9.67;98.14
67015;BME280;1033;52.560;13.374;2023-01-13T07:40:59;99896.91;;;9.56;99.39
67015;BME280;1033;52.560;13.374;2023-01-13T07:43:51;99893.81;;;9.53;99.23
67015;BME280;1033;52.560;13.374;2023-01-13T07:46:21;99893.41;;;9.49;98.32
67015;BME280;1033;52.560;13.374;2023-01-13T07:48:51;99902.09;;;9.58;97.18
67015;BME280;1033;52.560;13.374;2023-01-13T07:51:24;99913.44;;;9.67;96.36
67015;BME280;1033;52.560;13.374;2023-01-13T07:53:54;99913.38;;;9.73;96.58
67015;BME280;1033;52.560;13.374;2023-01-13T07:56:25;99913.38;;;9.73;96.12
67015;BME280;1033;52.560;13.374;2023-01-13T07:58:55;99909.09;;;9.66;96.16
67015;BME280;1033;52.560;13.374;2023-01-13T08:01:27;99910.78;;;9.60;94.94
67015;BME280;1033;52.560;13.374;2023-01-13T08:03:59;99908.25;;;9.65;95.02
67015;BME280;1033;52.560;13.374;2023-01-13T08:06:29;99903.69;;;9.66;94.22
67015;BME280;1033;52.560;13.374;2023-01-13T08:08:59;99929.03;;;9.65;93.51
67015;BME280;1033;52.560;13.374;2023-01-13T08:11:30;99937.19;;;9.83;92.99
67015;BME280;1033;52.560;13.374;2023-01-13T08:14:00;99942.00;;;9.81;92.76
67015;BME280;1033;52.560;13.374;2023-01-13T08:16:32;99936.69;;;9.92;91.54
67015;BME280;1033;52.560;13.374;2023-01-13T08:19:03;99942.94;;;9.93;91.03
67015;BME280;1033;52.560;13.374;2023-01-13T08:21:33;99946.09;;;9.90;91.72
67015;BME280;1033;52.560;13.374;2023-01-13T08:24:04;99955.53;;;10.06;89.75
67015;BME280;1033;52.560;13.374;2023-01-13T08:26:35;99956.56;;;10.04;88.29
67015;BME280;1033;52.560;13.374;2023-01-13T08:29:06;99953.56;;;10.13;88.57
67015;BME280;1033;52.560;13.374;2023-01-13T08:31:36;99942.84;;;10.06;88.02
67015;BME280;1033;52.560;13.374;2023-01-13T08:34:06;99934.09;;;10.04;87.52
67015;BME280;1033;52.560;13.374;2023-01-13T08:36:40;99938.97;;;9.95;87.63
67015;BME280;1033;52.560;13.374;2023-01-13T08:39:10;99953.06;;;9.97;87.86
67015;BME280;1033;52.560;13.374;2023-01-13T08:41:46;99950.94;;;9.81;88.35
67015;BME280;1033;52.560;13.374;2023-01-13T08:44:27;99952.81;;;9.81;88.79
67015;BME280;1033;52.560;13.374;2023-01-13T08:47:00;99950.16;;;9.74;88.74
67015;BME280;1033;52.560;13.374;2023-01-13T08:49:35;99928.38;;;9.69;89.14
67015;BME280;1033;52.560;13.374;2023-01-13T08:52:05;99958.44;;;9.79;89.04
67015;BME280;1033;52.560;13.374;2023-01-13T08:54:36;99964.09;;;9.71;88.98
67015;BME280;1033;52.560;13.374;2023-01-13T08:57:07;99987.59;;;9.71;89.45
67015;BME280;1033;52.560;13.374;2023-01-13T08:59:37;99986.94;;;9.75;89.39
67015;BME280;1033;52.560;13.374;2023-01-13T09:02:12;99982.22;;;9.64;88.29
67015;BME280;1033;52.560;13.374;2023-01-13T09:04:42;99989.81;;;9.80;88.19
67015;BME280;1033;52.560;13.374;2023-01-13T09:07:12;99970.34;;;9.72;88.78
67015;BME280;1033;52.560;13.374;2023-01-13T09:09:42;99932.72;;;9.70;87.88
67015;BME280;1033;52.560;13.374;2023-01-13T09:12:14;99927.16;;;9.65;87.99
67015;BME280;1033;52.560;13.374;2023-01-13T09:15:01;99929.28;;;9.63;86.96
67015;BME280;1033;52.560;13.374;2023-01-13T09:17:33;99829.44;;;9.50;88.09
67015;BME280;1033;52.560;13.374;2023-01-13T09:20:03;99886.34;;;9.73;88.02
67015;BME280;1033;52.560;13.374;2023-01-13T09:22:33;99963.41;;;9.82;87.09
67015;BME280;1033;52.560;13.374;2023-01-13T09:25:05;99967.41;;;9.73;86.70
67015;BME280;1033;52.560;13.374;2023-01-13T09:27:36;99959.75;;;9.70;86.66
67015;BME280;1033;52.560;13.374;2023-01-13T09:30:07;99965.16;;;9.70;85.89
67015;BME280;1033;52.560;13.374;2023-01-13T09:32:37;99963.50;;;9.69;85.03
67015;BME280;1033;52.560;13.374;2023-01-13T09:35:07;99969.13;;;9.92;84.87
67015;BME280;1033;52.560;13.374;2023-01-13T09:37:37;99954.97;;;9.97;84.10
67015;BME280;1033;52.560;13.374;2023-01-13T09:40:15;99960.16;;;9.98;83.69
67015;BME280;1033;52.560;13.374;2023-01-13T09:42:55;99956.25;;;10.19;83.64
67015;BME280;1033;52.560;13.374;2023-01-13T09:45:48;99946.06;;;10.15;82.15
67015;BME280;1033;52.560;13.374;2023-01-13T09:48:22;99933.34;;;9.97;82.22
67015;BME280;1033;52.560;13.374;2023-01-13T09:51:02;99932.72;;;9.70;82.38
67015;BME280;1033;52.560;13.374;2023-01-13T09:53:39;99944.41;;;9.64;83.71
67015;BME280;1033;52.560;13.374;2023-01-13T09:56:12;99957.75;;;9.59;84.53
67015;BME280;1033;52.560;13.374;2023-01-13T09:58:44;99965.47;;;9.55;84.81
67015;BME280;1033;52.560;13.374;2023-01-13T10:01:21;99966.56;;;9.48;86.26
67015;BME280;1033;52.560;13.374;2023-01-13T10:03:53;99959.56;;;9.65;86.23
67015;BME280;1033;52.560;13.374;2023-01-13T10:06:31;99958.22;;;9.81;85.46
67015;BME280;1033;52.560;13.374;2023-01-13T10:09:02;99967.56;;;9.78;84.93
67015;BME280;1033;52.560;13.374;2023-01-13T10:11:35;99964.63;;;9.86;84.25
67015;BME280;1033;52.560;13.374;2023-01-13T10:14:30;99980.66;;;9.81;84.71
67015;BME280;1033;52.560;13.374;2023-01-13T10:17:07;99973.31;;;9.88;83.96
67015;BME280;1033;52.560;13.374;2023-01-13T10:19:47;99976.75;;;9.77;84.01
67015;BME280;1033;52.560;13.374;2023-01-13T10:22:37;99975.25;;;9.81;83.23
67015;BME280;1033;52.560;13.374;2023-01-13T10:25:25;99966.81;;;9.71;81.81
67015;BME280;1033;52.560;13.374;2023-01-13T10:28:00;99969.84;;;9.81;81.88
67015;BME280;1033;52.560;13.374;2023-01-13T10:30:35;99972.59;;;9.75;81.06
67015;BME280;1033;52.560;13.374;2023-01-13T10:33:11;99970.03;;;9.55;81.05
67015;BME280;1033;52.560;13.374;2023-01-13T10:35:54;99964.63;;;9.55;81.41
67015;BME280;1033;52.560;13.374;2023-01-13T10:38:26;99975.56;;;9.67;81.41
67015;BME280;1033;52.560;13.374;2023-01-13T10:40:58;99976.56;;;9.72;80.24
67015;BME280;1033;52.560;13.374;2023-01-13T10:43:28;99970.44;;;9.83;79.37
67015;BME280;1033;52.560;13.374;2023-01-13T10:46:02;99967.03;;;9.94;79.46
67015;BME280;1033;52.560;13.374;2023-01-13T10:48:35;99956.56;;;10.04;77.59
67015;BME280;1033;52.560;13.374;2023-01-13T10:51:23;99974.44;;;10.06;77.22
67015;BME280;1033;52.560;13.374;2023-01-13T10:53:56;99967.38;;;10.04;76.91
67015;BME280;1033;52.560;13.374;2023-01-13T10:56:29;99976.84;;;9.89;77.15
67015;BME280;1033;52.560;13.374;2023-01-13T10:59:19;99971.25;;;9.90;77.33
67015;BME280;1033;52.560;13.374;2023-01-13T11:01:58;99961.44;;;9.96;77.00
67015;BME280;1033;52.560;13.374;2023-01-13T11:04:35;99963.53;;;10.19;76.09
67015;BME280;1033;52.560;13.374;2023-01-13T11:07:16;99957.09;;;10.38;76.25
67015;BME280;1033;52.560;13.374;2023-01-13T11:10:16;99969.09;;;10.24;75.48
67015;BME280;1033;52.560;13.374;2023-01-13T11:12:55;99963.34;;;10.14;75.45
67015;BME280;1033;52.560;13.374;2023-01-13T11:15:36;99968.28;;;10.23;75.50
67015;BME280;1033;52.560;13.374;2023-01-13T11:18:15;99964.03;;;10.52;74.35
67015;BME280;1033;52.560;13.374;2023-01-13T11:20:49;99974.13;;;10.45;73.92
67015;BME280;1033;52.560;13.374;2023-01-13T11:23:23;99970.22;;;10.59;73.09
67015;BME280;1033;52.560;13.374;2023-01-13T11:26:01;99970.66;;;10.56;73.25
67015;BME280;1033;52.560;13.374;2023-01-13T11:28:39;99963.72;;;10.42;72.44
67015;BME280;1033;52.560;13.374;2023-01-13T11:31:19;99968.53;;;10.40;71.92
67015;BME280;1033;52.560;13.374;2023-01-13T11:34:00;99964.25;;;10.51;71.90
67015;BME280;1033;52.560;13.374;2023-01-13T11:36:39;99963.28;;;10.45;71.10
67015;BME280;1033;52.560;13.374;2023-01-13T11:39:20;99962.72;;;10.36;71.23
67015;BME280;1033;52.560;13.374;2023-01-13T11:41:56;99969.59;;;10.39;70.49
67015;BME280;1033;52.560;13.374;2023-01-13T11:44:48;99961.31;;;10.52;71.14
67015;BME280;1033;52.560;13.374;2023-01-13T11:47:22;99959.44;;;10.53;69.35
67015;BME280;1033;52.560;13.374;2023-01-13T11:49:54;99970.75;;;10.68;68.76
67015;BME280;1033;52.560;13.374;2023-01-13T11:52:36;99969.91;;;10.67;67.75
67015;BME280;1033;52.560;13.374;2023-01-13T11:55:23;99967.34;;;10.54;68.12
67015;BME280;1033;52.560;13.374;2023-01-13T11:58:07;99963.66;;;10.49;68.17
67015;BME280;1033;52.560;13.374;2023-01-13T12:01:04;99956.69;;;10.59;66.76
67015;BME280;1033;52.560;13.374;2023-01-13T12:03:40;99967.66;;;10.64;66.72
67015;BME280;1033;52.560;13.374;2023-01-13T12:06:20;99971.78;;;10.67;66.29
67015;BME280;1033;52.560;13.374;2023-01-13T12:09:22;99966.00;;;10.63;65.23
67015;BME280;1033;52.560;13.374;2023-01-13T12:12:14;99967.34;;;10.54;66.13
67015;BME280;1033;52.560;13.374;2023-01-13T12:15:23;99965.69;;;10.53;65.30
67015;BME280;1033;52.560;13.374;2023-01-13T12:21:19;99958.94;;;10.62;64.33
67015;BME280;1033;52.560;13.374;2023-01-13T12:24:05;99966.31;;;10.73;64.07
67015;BME280;1033;52.560;13.374;2023-01-13T12:26:46;99950.06;;;10.73;63.48
67015;BME280;1033;52.560;13.374;2023-01-13T12:29:19;99963.44;;;10.68;63.72
67015;BME280;1033;52.560;13.374;2023-01-13T12:32:05;99966.69;;;10.77;63.19
67015;BME280;1033;52.560;13.374;2023-01-13T12:34:57;99968.63;;;10.70;61.89
67015;BME280;1033;52.560;13.374;2023-01-13T12:37:38;99967.34;;;10.54;60.85
67015;BME280;1033;52.560;13.374;2023-01-13T12:40:22;99983.59;;;10.54;62.05
67015;BME280;1033;52.560;13.374;2023-01-13T12:43:03;99965.84;;;10.58;62.44
67015;BME280;1033;52.560;13.374;2023-01-13T12:46:33;99978.63;;;10.69;62.38
67015;BME280;1033;52.560;13.374;2023-01-13T12:49:11;99972.09;;;10.77;61.08
67015;BME280;1033;52.560;13.374;2023-01-13T12:52:14;99966.44;;;10.60;58.40
67015;BME280;1033;52.560;13.374;2023-01-13T12:55:13;99978.31;;;10.77;59.30
67015;BME280;1033;52.560;13.374;2023-01-13T12:58:15;99977.28;;;10.97;58.25
67015;BME280;1033;52.560;13.374;2023-01-13T13:01:14;99984.09;;;10.81;58.66
67015;BME280;1033;52.560;13.374;2023-01-13T13:04:10;99976.22;;;10.98;58.73
67015;BME280;1033;52.560;13.374;2023-01-13T13:06:44;99985.84;;;11.12;58.14
67015;BME280;1033;52.560;13.374;2023-01-13T13:09:24;99979.00;;;10.91;57.79
67015;BME280;1033;52.560;13.374;2023-01-13T13:12:41;99990.66;;;10.55;58.61
67015;BME280;1033;52.560;13.374;2023-01-13T13:15:41;99999.13;;;10.40;59.49
67015;BME280;1033;52.560;13.374;2023-01-13T13:18:29;99999.63;;;10.31;59.86
67015;BME280;1033;52.560;13.374;2023-01-13T13:21:06;99993.03;;;10.45;59.60
67015;BME280;1033;52.560;13.374;2023-01-13T13:23:44;100007.47;;;10.57;59.81
67015;BME280;1033;52.560;13.374;2023-01-13T13:26:22;99996.63;;;10.39;59.38
67015;BME280;1033;52.560;13.374;2023-01-13T13:32:38;99997.78;;;10.50;59.61
67015;BME280;1033;52.560;13.374;2023-01-13T13:35:25;100010.78;;;10.59;59.19
67015;BME280;1033;52.560;13.374;2023-01-13T13:38:17;100013.50;;;10.59;59.77
67015;BME280;1033;52.560;13.374;2023-01-13T13:41:13;100021.47;;;10.54;59.50
67015;BME280;1033;52.560;13.374;2023-01-13T13:44:13;100023.47;;;10.40;60.05
67015;BME280;1033;52.560;13.374;2023-01-13T13:47:05;100029.09;;;10.39;60.46
67015;BME280;1033;52.560;13.374;2023-01-13T13:49:38;100025.88;;;10.49;60.78
67015;BME280;1033;52.560;13.374;2023-01-13T13:52:16;100029.72;;;10.59;59.81
67015;BME280;1033;52.560;13.374;2023-01-13T13:54:50;100025.00;;;10.73;59.75
67015;BME280;1033;52.560;13.374;2023-01-13T13:57:29;100021.09;;;10.69;59.52
67015;BME280;1033;52.560;13.374;2023-01-13T14:00:15;100021.88;;;10.51;60.66
67015;BME280;1033;52.560;13.374;2023-01-13T14:02:52;100029.03;;;10.21;60.61
67015;BME280;1033;52.560;13.374;2023-01-13T14:05:24;100026.75;;;10.18;61.40
67015;BME280;1033;52.560;13.374;2023-01-13T14:08:02;100028.88;;;10.09;60.97